Time;durP1;ratioP1;P1;durP2;ratioP2;P2;SDS_P1;SDS_P2;PMS_P1;PMS_P2;Temp;Humidity;BMP_temperature;BMP_pressure;BME280_temperature;BME280_humidity;BME280_pressure;Samples;Min_cycle;Max_cycle;Signal;HPM_P1;HPM_P2
2022/12/08 00:01:22;;;;;;;17.15;8.23;;;;;;;1.67;100.00;100306.41;6145388;28;20446;-74
2022/12/08 00:04:17;;;;;;;24.10;7.30;;;;;;;1.70;100.00;100300.13;6141560;28;20029;-74
2022/12/08 00:10:26;;;;;;;16.17;7.20;;;;;;;1.86;100.00;100298.19;6145841;28;20063;-74
2022/12/08 00:13:21;;;;;;;21.43;7.60;;;;;;;1.87;100.00;100281.56;6145234;28;20039;-76
2022/12/08 00:16:17;;;;;;;19.00;8.17;;;;;;;1.77;100.00;100268.25;6134558;28;20362;-75
2022/12/08 00:19:12;;;;;;;19.67;6.63;;;;;;;1.89;100.00;100277.06;6145805;28;20044;-75
2022/12/08 00:22:08;;;;;;;25.97;7.57;;;;;;;1.90;100.00;100268.31;6144861;28;20038;-75
2022/12/08 00:25:04;;;;;;;20.45;8.23;;;;;;;1.94;100.00;100277.59;6137773;28;20306;-74
2022/12/08 00:28:00;;;;;;;16.98;7.60;;;;;;;1.95;100.00;100271.44;6145516;28;20119;-76
2022/12/08 00:30:55;;;;;;;16.95;7.00;;;;;;;1.96;100.00;100275.72;6145320;28;20054;-76
2022/12/08 00:33:51;;;;;;;17.60;8.23;;;;;;;1.93;100.00;100264.63;6144883;28;20044;-75
2022/12/08 00:36:46;;;;;;;19.70;8.50;;;;;;;1.93;100.00;100265.44;6145357;28;20040;-76
2022/12/08 00:39:41;;;;;;;20.42;7.70;;;;;;;1.93;100.00;100270.69;6140026;28;20058;-75
2022/12/08 00:42:37;;;;;;;17.47;7.30;;;;;;;1.80;100.00;100254.16;6143496;28;20472;-74
2022/12/08 00:45:32;;;;;;;16.77;8.80;;;;;;;1.78;100.00;100256.03;6141686;28;20032;-76
2022/12/08 00:48:27;;;;;;;18.00;8.60;;;;;;;1.81;100.00;100255.84;6143825;28;20035;-75
2022/12/08 00:51:23;;;;;;;21.90;9.17;;;;;;;1.83;100.00;100258.31;6144363;28;20374;-75
2022/12/08 00:54:18;;;;;;;19.37;8.23;;;;;;;1.84;100.00;100250.41;6144531;28;20028;-75
2022/12/08 00:57:13;;;;;;;15.17;7.90;;;;;;;1.83;100.00;100253.09;6149670;28;20058;-75
2022/12/08 01:00:09;;;;;;;20.30;8.73;;;;;;;1.85;100.00;100254.66;6149529;28;20289;-75
2022/12/08 01:03:04;;;;;;;19.20;8.18;;;;;;;1.79;100.00;100234.19;6149518;28;20063;-74
2022/12/08 01:06:02;;;;;;;21.27;8.33;;;;;;;1.93;100.00;100254.19;6148703;28;20119;-76
2022/12/08 01:08:58;;;;;;;20.60;8.25;;;;;;;1.91;100.00;100246.44;6148941;28;20062;-74
2022/12/08 01:11:53;;;;;;;15.17;6.77;;;;;;;1.94;100.00;100251.47;6148469;28;20040;-75
2022/12/08 01:14:48;;;;;;;14.23;6.53;;;;;;;1.93;100.00;100251.56;6149788;28;20058;-74
2022/12/08 01:17:44;;;;;;;19.23;8.83;;;;;;;1.95;100.00;100247.91;6148701;28;20499;-75
2022/12/08 01:20:39;;;;;;;18.47;9.00;;;;;;;1.89;100.00;100240.47;6149075;28;20020;-75
2022/12/08 01:23:34;;;;;;;18.53;8.27;;;;;;;1.86;100.00;100232.00;6148291;28;20036;-74
2022/12/08 01:26:29;;;;;;;15.73;7.57;;;;;;;1.96;100.00;100254.78;6153600;28;20035;-75
2022/12/08 01:29:26;;;;;;;16.63;7.27;;;;;;;1.79;100.00;100229.78;6149456;28;20111;-75
2022/12/08 01:32:21;;;;;;;18.85;7.45;;;;;;;1.88;100.00;100241.41;6148456;28;20286;-75
2022/12/08 01:35:16;;;;;;;19.00;7.00;;;;;;;1.88;100.00;100240.56;6148874;28;20080;-74
2022/12/08 01:38:12;;;;;;;19.93;7.70;;;;;;;1.86;100.00;100238.06;6148499;28;20405;-74
2022/12/08 01:41:09;;;;;;;16.47;6.67;;;;;;;1.92;100.00;100248.13;6148483;28;20290;-74
2022/12/08 01:44:08;;;;;;;15.40;6.20;;;;;;;1.82;100.00;100228.78;6119028;28;20109;-75
2022/12/08 01:47:03;;;;;;;17.55;6.93;;;;;;;1.75;100.00;100230.94;6148359;28;20060;-74
2022/12/08 01:49:59;;;;;;;16.67;6.77;;;;;;;1.75;100.00;100236.16;6130535;28;20492;-74
2022/12/08 01:52:58;;;;;;;16.48;6.93;;;;;;;1.74;100.00;100238.88;6147990;28;20266;-75
2022/12/08 01:55:57;;;;;;;12.60;5.85;;;;;;;1.67;100.00;100237.59;6148250;28;20768;-74
2022/12/08 01:58:53;;;;;;;12.98;6.05;;;;;;;1.70;100.00;100246.09;6147848;28;20040;-76
2022/12/08 02:01:48;;;;;;;13.45;6.18;;;;;;;1.71;100.00;100245.13;6129852;28;20085;-75
2022/12/08 02:04:43;;;;;;;18.13;6.03;;;;;;;1.62;100.00;100224.88;6148074;28;20541;-76
2022/12/08 02:07:39;;;;;;;12.63;5.47;;;;;;;1.59;100.00;100224.22;6144213;28;20038;-75
2022/12/08 02:10:37;;;;;;;14.05;4.85;;;;;;;1.60;100.00;100215.44;6120323;28;20040;-75
2022/12/08 02:13:32;;;;;;;12.52;5.75;;;;;;;1.65;100.00;100229.03;6147502;28;20036;-74
2022/12/08 02:16:37;;;;;;;14.73;6.17;;;;;;;1.48;100.00;100204.03;6147977;28;20472;-72
2022/12/08 02:19:44;;;;;;;11.30;5.95;;;;;;;1.49;100.00;100210.09;6128989;28;20370;-74
2022/12/08 02:23:14;;;;;;;15.38;6.22;;;;;;;1.47;100.00;100212.78;6146386;28;20081;-74
2022/12/08 02:26:27;;;;;;;17.08;6.57;;;;;;;1.41;100.00;100204.53;6135319;28;20354;-74
2022/12/08 02:29:50;;;;;;;15.27;5.70;;;;;;;1.43;100.00;100211.34;6121792;28;20158;-73
2022/12/08 02:33:06;;;;;;;13.43;5.70;;;;;;;1.38;100.00;100199.50;6146774;28;20043;-75
2022/12/08 02:36:09;;;;;;;13.43;5.93;;;;;;;1.29;100.00;100184.44;6147763;28;20484;-75
2022/12/08 02:39:28;;;;;;;16.70;5.68;;;;;;;1.24;100.00;100181.28;6116931;28;20024;-74
2022/12/08 02:42:27;;;;;;;15.55;6.30;;;;;;;1.36;100.00;100201.41;6147071;28;20035;-74
2022/12/08 02:45:44;;;;;;;15.88;5.80;;;;;;;1.08;100.00;100155.34;6129044;28;20380;-73
2022/12/08 02:49:05;;;;;;;13.48;5.63;;;;;;;1.41;100.00;100196.72;6129384;28;20476;-74
2022/12/08 02:52:26;;;;;;;16.50;5.70;;;;;;;1.39;100.00;100199.41;6127269;28;20198;-73
2022/12/08 02:55:55;;;;;;;16.15;7.15;;;;;;;1.43;100.00;100197.44;6110929;28;20043;-74
2022/12/08 02:59:01;;;;;;;17.48;6.80;;;;;;;1.43;100.00;100195.66;6118774;28;20032;-75
2022/12/08 03:02:11;;;;;;;15.15;6.38;;;;;;;1.42;100.00;100196.59;6127817;28;20036;-74
2022/12/08 03:05:20;;;;;;;17.83;6.20;;;;;;;1.36;100.00;100188.34;6129064;28;20031;-74
2022/12/08 03:08:31;;;;;;;14.93;5.82;;;;;;;1.43;100.00;100193.06;6142045;28;20024;-73
2022/12/08 03:11:35;;;;;;;12.65;5.50;;;;;;;1.45;100.00;100179.88;6121652;28;20044;-74
2022/12/08 03:14:31;;;;;;;12.63;5.28;;;;;;;1.45;100.00;100169.44;6146255;28;20032;-75
2022/12/08 03:17:27;;;;;;;15.35;5.65;;;;;;;1.43;100.00;100166.94;6127694;28;20032;-76
2022/12/08 03:20:24;;;;;;;17.65;6.35;;;;;;;1.55;100.00;100171.31;6121953;28;20499;-75
2022/12/08 03:23:21;;;;;;;15.27;5.78;;;;;;;1.54;100.00;100158.38;6145739;28;20069;-75
2022/12/08 03:26:21;;;;;;;16.27;5.95;;;;;;;1.62;100.00;100166.53;6143373;28;20496;-73
2022/12/08 03:29:16;;;;;;;16.02;6.75;;;;;;;1.56;100.00;100153.88;6146245;28;20031;-73
2022/12/08 03:32:34;;;;;;;13.05;6.20;;;;;;;1.63;100.00;100165.63;6127470;28;20051;-76
2022/12/08 03:35:32;;;;;;;13.38;5.80;;;;;;;1.56;100.00;100159.09;6128007;28;20514;-75
2022/12/08 03:38:36;;;;;;;17.17;6.47;;;;;;;1.49;100.00;100139.56;6126260;28;20457;-76
2022/12/08 03:41:32;;;;;;;16.38;6.30;;;;;;;1.59;100.00;100154.53;6128207;28;20465;-73
2022/12/08 03:44:27;;;;;;;17.17;5.35;;;;;;;1.60;100.00;100152.75;6145446;28;20040;-75
2022/12/08 03:47:22;;;;;;;14.60;6.70;;;;;;;1.52;100.00;100142.78;6146231;28;20039;-74
2022/12/08 03:50:18;;;;;;;17.83;6.03;;;;;;;1.55;100.00;100141.78;6144888;28;20365;-76
2022/12/08 03:53:13;;;;;;;16.92;5.78;;;;;;;1.56;100.00;100140.81;6145529;28;20058;-74
2022/12/08 03:56:18;;;;;;;16.77;5.97;;;;;;;1.59;100.00;100140.63;6128045;28;20028;-75
2022/12/08 03:59:13;;;;;;;19.73;7.30;;;;;;;1.57;100.00;100132.06;6145838;28;20036;-74
2022/12/08 04:02:08;;;;;;;15.57;7.03;;;;;;;1.52;100.00;100132.34;6145390;28;20447;-74
2022/12/08 04:05:04;;;;;;;15.03;6.83;;;;;;;1.46;100.00;100118.88;6145856;28;20043;-75
2022/12/08 04:08:00;;;;;;;16.80;6.10;;;;;;;1.60;100.00;100131.84;6145998;28;20115;-75
2022/12/08 04:10:55;;;;;;;14.75;6.70;;;;;;;1.43;100.00;100101.63;6145541;28;20035;-74
2022/12/08 04:13:50;;;;;;;14.67;6.40;;;;;;;1.50;100.00;100121.16;6145249;28;20081;-76
2022/12/08 04:16:45;;;;;;;15.90;5.73;;;;;;;1.51;100.00;100122.00;6145596;28;20020;-75
2022/12/08 04:19:41;;;;;;;16.90;6.57;;;;;;;1.48;100.00;100110.00;6145138;28;20441;-73
2022/12/08 04:22:36;;;;;;;15.43;6.30;;;;;;;1.30;100.00;100079.91;6144898;28;20032;-76
2022/12/08 04:25:31;;;;;;;16.83;6.77;;;;;;;1.47;100.00;100116.16;6145464;28;20608;-75
2022/12/08 04:28:28;;;;;;;17.23;6.75;;;;;;;1.38;100.00;100101.13;6145228;28;20119;-74
2022/12/08 04:31:23;;;;;;;18.95;6.63;;;;;;;1.45;100.00;100106.75;6149232;28;20061;-74
2022/12/08 04:34:18;;;;;;;18.97;7.37;;;;;;;1.48;100.00;100114.38;6149365;28;20028;-75
2022/12/08 04:37:14;;;;;;;19.23;8.17;;;;;;;1.43;100.00;100090.34;6150544;28;20388;-76
2022/12/08 04:40:10;;;;;;;15.27;6.03;;;;;;;1.50;100.00;100099.44;6150407;28;20034;-75
2022/12/08 04:43:06;;;;;;;16.67;7.90;;;;;;;1.50;100.00;100095.03;6149608;28;20408;-74
2022/12/08 04:46:04;;;;;;;15.30;6.87;;;;;;;1.56;100.00;100093.78;6150610;28;20113;-74
2022/12/08 04:48:59;;;;;;;20.90;7.18;;;;;;;1.60;100.00;100098.69;6150058;28;20024;-74
2022/12/08 04:51:54;;;;;;;22.13;8.43;;;;;;;1.59;100.00;100085.75;6149718;28;20024;-77
2022/12/08 04:54:50;;;;;;;21.40;7.50;;;;;;;1.45;100.00;100051.88;6149896;28;20040;-75
2022/12/08 04:57:45;;;;;;;22.60;7.17;;;;;;;1.68;100.00;100080.75;6150171;28;20036;-74
2022/12/08 05:00:41;;;;;;;19.85;7.78;;;;;;;1.64;100.00;100076.66;6149917;28;20392;-76
2022/12/08 05:03:36;;;;;;;18.63;7.72;;;;;;;1.67;100.00;100086.06;6149157;28;20039;-76
2022/12/08 05:06:31;;;;;;;21.17;7.97;;;;;;;1.62;100.00;100062.88;6150108;28;20146;-74
2022/12/08 05:09:27;;;;;;;20.73;7.97;;;;;;;1.71;100.00;100088.34;6148248;28;20055;-75
2022/12/08 05:12:22;;;;;;;18.27;7.40;;;;;;;1.63;100.00;100068.94;6114607;28;20032;-74
2022/12/08 05:15:17;;;;;;;18.30;7.18;;;;;;;1.60;100.00;100063.91;6149719;28;20773;-73
2022/12/08 05:18:14;;;;;;;17.83;8.47;;;;;;;1.61;100.00;100065.56;6149660;28;20028;-74
2022/12/08 05:21:10;;;;;;;21.38;7.75;;;;;;;1.73;100.00;100083.03;6149369;28;20343;-74
2022/12/08 05:24:05;;;;;;;19.17;7.90;;;;;;;1.68;100.00;100074.69;6148662;28;20036;-75
2022/12/08 05:27:01;;;;;;;17.90;8.37;;;;;;;1.71;100.00;100066.63;6149260;28;20077;-75
2022/12/08 05:29:56;;;;;;;19.55;8.23;;;;;;;1.78;100.00;100068.72;6148991;28;20043;-75
2022/12/08 05:32:51;;;;;;;25.00;8.27;;;;;;;1.77;100.00;100067.03;6148519;28;20032;-75
2022/12/08 05:35:46;;;;;;;26.20;9.43;;;;;;;1.72;100.00;100063.06;6149692;28;20032;-75
2022/12/08 05:38:43;;;;;;;18.00;8.27;;;;;;;1.81;100.00;100070.28;6148530;28;20044;-76
2022/12/08 05:41:38;;;;;;;19.67;7.90;;;;;;;1.78;100.00;100070.47;6148235;28;20039;-77
2022/12/08 05:44:33;;;;;;;18.90;8.27;;;;;;;1.73;100.00;100049.06;6148148;28;20028;-76
2022/12/08 05:47:29;;;;;;;21.20;8.43;;;;;;;1.84;100.00;100066.59;6149228;28;20039;-76
2022/12/08 05:50:24;;;;;;;17.37;8.20;;;;;;;1.78;100.00;100044.34;6148470;28;20031;-74
2022/12/08 05:53:20;;;;;;;17.05;7.80;;;;;;;1.80;100.00;100061.59;6147437;28;20032;-78
2022/12/08 05:56:15;;;;;;;20.92;8.35;;;;;;;1.86;100.00;100057.72;6148671;28;20028;-75
2022/12/08 05:59:10;;;;;;;20.80;7.93;;;;;;;1.87;100.00;100069.84;6147962;28;20040;-73
2022/12/08 06:02:07;;;;;;;27.23;9.03;;;;;;;1.84;100.00;100041.31;6148069;28;20084;-74
2022/12/08 06:05:02;;;;;;;20.95;8.32;;;;;;;1.69;100.00;100011.84;6148075;28;20157;-75
2022/12/08 06:07:58;;;;;;;22.90;9.90;;;;;;;2.00;100.00;100044.50;6148293;28;20514;-75
2022/12/08 06:10:53;;;;;;;22.83;8.93;;;;;;;2.04;100.00;100051.19;6148815;28;20064;-76
2022/12/08 06:13:49;;;;;;;27.80;9.97;;;;;;;2.00;100.00;100043.66;6148421;28;20107;-76
2022/12/08 06:16:44;;;;;;;24.52;9.52;;;;;;;2.01;100.00;100054.00;6148233;28;20115;-73
2022/12/08 06:19:40;;;;;;;27.47;9.87;;;;;;;1.99;100.00;100045.44;6148480;28;20024;-75
2022/12/08 06:22:35;;;;;;;25.63;9.73;;;;;;;1.90;100.00;100024.38;6144062;28;20225;-74
2022/12/08 06:25:31;;;;;;;26.23;10.38;;;;;;;1.99;100.00;100049.84;6145001;28;20031;-73
2022/12/08 06:28:27;;;;;;;25.63;10.37;;;;;;;2.00;100.00;100056.75;6147776;28;20060;-74
2022/12/08 06:31:24;;;;;;;24.65;9.60;;;;;;;1.96;100.00;100050.88;6146802;28;20047;-73
2022/12/08 06:34:19;;;;;;;24.50;9.68;;;;;;;1.95;100.00;100041.41;6129356;28;20150;-76
2022/12/08 06:37:14;;;;;;;26.03;10.00;;;;;;;2.02;100.00;100039.16;6147726;28;20075;-72
2022/12/08 06:40:10;;;;;;;25.97;10.37;;;;;;;2.08;100.00;100052.66;6147368;28;20036;-74
2022/12/08 06:43:05;;;;;;;25.40;10.13;;;;;;;2.08;100.00;100050.03;6146342;28;20035;-75
2022/12/08 06:46:03;;;;;;;24.27;9.97;;;;;;;1.99;100.00;100040.22;6146933;28;20036;-75
2022/12/08 06:48:58;;;;;;;26.73;10.38;;;;;;;2.14;100.00;100047.00;6129543;28;20035;-74
2022/12/08 06:51:53;;;;;;;25.50;9.37;;;;;;;2.17;100.00;100049.41;6147106;28;20040;-76
2022/12/08 06:54:49;;;;;;;26.73;9.13;;;;;;;2.19;100.00;100052.72;6147005;28;20476;-76
2022/12/08 06:57:44;;;;;;;21.33;8.63;;;;;;;2.08;100.00;100036.97;6147209;28;20056;-74
2022/12/08 07:00:41;;;;;;;19.73;8.03;;;;;;;2.16;100.00;100058.16;6145242;28;20073;-76
2022/12/08 07:03:37;;;;;;;20.67;8.07;;;;;;;2.16;100.00;100063.41;6146518;28;20119;-74
2022/12/08 07:06:35;;;;;;;20.20;7.80;;;;;;;2.14;100.00;100070.53;6147001;28;20020;-73
2022/12/08 07:09:31;;;;;;;21.73;7.78;;;;;;;2.16;100.00;100065.16;6145319;28;20038;-74
2022/12/08 07:12:27;;;;;;;17.08;8.05;;;;;;;2.13;100.00;100068.00;6126896;28;20373;-75
2022/12/08 07:15:22;;;;;;;15.93;6.60;;;;;;;2.09;100.00;100050.88;6146739;28;20095;-74
2022/12/08 07:18:18;;;;;;;21.67;7.78;;;;;;;1.99;100.00;100050.69;6146219;28;20552;-75
2022/12/08 07:21:16;;;;;;;17.97;7.10;;;;;;;1.95;100.00;100046.63;6146021;28;20028;-73
2022/12/08 07:24:12;;;;;;;16.10;6.00;;;;;;;1.97;100.00;100052.56;6145836;28;20024;-74
2022/12/08 07:27:07;;;;;;;14.82;6.70;;;;;;;2.02;100.00;100065.31;6146266;28;20468;-75
2022/12/08 07:30:03;;;;;;;16.13;6.20;;;;;;;1.82;100.00;100048.44;6146426;28;20031;-73
2022/12/08 07:32:58;;;;;;;17.90;7.22;;;;;;;1.90;100.00;100067.03;6145657;28;20616;-73
2022/12/08 07:35:58;;;;;;;16.23;6.90;;;;;;;1.81;100.00;100065.03;6146721;28;20040;-74
2022/12/08 07:38:53;;;;;;;19.00;7.32;;;;;;;1.85;100.00;100076.13;6146217;28;20055;-73
2022/12/08 07:41:49;;;;;;;21.23;8.33;;;;;;;1.74;100.00;100061.16;6161379;28;20405;-72
2022/12/08 07:44:44;;;;;;;20.35;8.00;;;;;;;1.78;100.00;100067.88;6146237;28;20269;-72
2022/12/08 07:47:40;;;;;;;19.30;7.80;;;;;;;1.78;100.00;100073.09;6146043;28;20060;-73
2022/12/08 07:50:35;;;;;;;22.17;8.47;;;;;;;1.70;100.00;100071.00;6146045;28;20480;-73
2022/12/08 07:53:30;;;;;;;20.90;8.67;;;;;;;1.63;100.00;100068.94;6145537;28;20382;-73
2022/12/08 07:56:26;;;;;;;19.70;8.55;;;;;;;1.51;100.00;100065.38;6145964;28;20431;-73
2022/12/08 07:59:21;;;;;;;17.00;7.10;;;;;;;1.49;100.00;100063.81;6145872;28;20032;-73
2022/12/08 08:02:18;;;;;;;20.77;8.23;;;;;;;1.40;100.00;100062.66;6145153;28;20060;-74
2022/12/08 08:05:13;;;;;;;21.88;8.90;;;;;;;1.49;100.00;100090.78;6145648;28;20040;-74
2022/12/08 08:08:09;;;;;;;22.63;8.20;;;;;;;1.42;100.00;100086.06;6145570;28;20065;-74
2022/12/08 08:11:06;;;;;;;25.80;9.40;;;;;;;1.40;100.00;100094.00;6145600;28;20035;-74
2022/12/08 08:14:01;;;;;;;20.48;7.78;;;;;;;1.40;100.00;100086.16;6145106;28;20028;-75
2022/12/08 08:16:56;;;;;;;25.77;9.02;;;;;;;1.44;100.00;100085.00;6145330;28;20475;-73
2022/12/08 08:19:52;;;;;;;26.30;9.40;;;;;;;1.10;100.00;100030.78;6145362;28;20040;-75
2022/12/08 08:22:49;;;;;;;20.73;8.32;;;;;;;1.40;100.00;100067.88;6145137;28;20023;-74
2022/12/08 08:25:44;;;;;;;22.17;8.70;;;;;;;1.50;100.00;100073.31;6145397;28;20040;-74
2022/12/08 08:28:39;;;;;;;20.53;8.37;;;;;;;1.52;100.00;100082.72;6145431;28;20146;-74
2022/12/08 08:31:35;;;;;;;25.48;9.75;;;;;;;1.58;100.00;100073.63;6145610;28;20333;-74
2022/12/08 08:34:30;;;;;;;29.03;9.80;;;;;;;1.61;100.00;100071.63;6145209;28;20031;-75
2022/12/08 08:37:26;;;;;;;25.00;9.17;;;;;;;1.62;100.00;100064.63;6145741;28;20020;-75
2022/12/08 08:40:21;;;;;;;23.73;9.50;;;;;;;1.67;100.00;100070.38;6145175;28;20105;-76
2022/12/08 08:43:29;;;;;;;25.33;9.52;;;;;;;1.84;100.00;100088.34;6145052;28;20036;-74
2022/12/08 08:46:24;;;;;;;27.92;9.82;;;;;;;1.79;100.00;100066.94;6145554;28;20032;-75
2022/12/08 08:49:20;;;;;;;28.47;10.27;;;;;;;1.85;100.00;100063.88;6145891;28;20036;-74
2022/12/08 08:52:15;;;;;;;27.33;11.57;;;;;;;1.91;100.00;100070.44;6144595;28;20456;-76
2022/12/08 08:55:10;;;;;;;25.70;10.85;;;;;;;1.97;100.00;100077.88;6145713;28;20481;-74
2022/12/08 08:58:06;;;;;;;22.33;9.33;;;;;;;1.98;100.00;100077.78;6145247;28;20044;-75
2022/12/08 09:01:01;;;;;;;27.43;9.37;;;;;;;2.09;100.00;100090.91;6145224;28;20031;-74
2022/12/08 09:03:56;;;;;;;24.13;9.13;;;;;;;2.07;100.00;100095.41;6144897;28;20048;-75
2022/12/08 09:06:52;;;;;;;30.23;9.90;;;;;;;1.96;100.00;100077.03;6145029;28;20089;-75
2022/12/08 09:09:47;;;;;;;24.83;9.13;;;;;;;2.14;100.00;100096.69;6141801;28;20060;-75
2022/12/08 09:12:43;;;;;;;25.35;11.18;;;;;;;2.09;100.00;100082.25;6127951;28;20258;-75
2022/12/08 09:15:38;;;;;;;25.93;9.50;;;;;;;2.20;100.00;100096.22;6145560;28;20024;-75
2022/12/08 09:18:34;;;;;;;25.23;9.32;;;;;;;2.16;100.00;100081.72;6149400;28;20028;-74
2022/12/08 09:21:29;;;;;;;24.02;9.35;;;;;;;2.18;100.00;100082.44;6149364;28;20496;-75
2022/12/08 09:24:25;;;;;;;26.80;10.33;;;;;;;2.24;100.00;100102.91;6148923;28;20028;-75
2022/12/08 09:27:20;;;;;;;26.13;9.55;;;;;;;2.25;100.00;100101.97;6149166;28;20110;-74
2022/12/08 09:30:16;;;;;;;21.63;9.67;;;;;;;2.19;100.00;100099.78;6148387;28;20438;-75
2022/12/08 09:33:11;;;;;;;20.88;8.68;;;;;;;2.15;100.00;100092.25;6147604;28;20451;-74
2022/12/08 09:36:07;;;;;;;22.13;8.70;;;;;;;2.21;100.00;100112.75;6148809;28;20020;-73
2022/12/08 09:39:03;;;;;;;20.95;8.30;;;;;;;1.90;100.00;100067.03;6149003;28;20039;-74
2022/12/08 09:42:05;;;;;;;21.83;8.07;;;;;;;2.06;100.00;100096.38;6147207;28;20064;-74
2022/12/08 09:45:13;;;;;;;21.08;8.55;;;;;;;2.12;100.00;100109.00;6148432;28;20032;-74
2022/12/08 09:48:15;;;;;;;;;;;;;;;2.13;100.00;100107.22;6130744;28;20085;-74
2022/12/08 09:51:13;;;;;;;22.45;9.52;;;;;;;1.97;100.00;100077.88;6130970;28;19953;-75
2022/12/08 09:54:22;;;;;;;22.45;8.77;;;;;;;2.08;100.00;100102.31;6147500;28;20082;-75
2022/12/08 09:57:19;;;;;;;23.02;8.98;;;;;;;1.98;100.00;100083.00;6129695;28;20078;-75
2022/12/08 10:00:16;;;;;;;24.58;9.55;;;;;;;1.85;100.00;100058.63;6146281;28;20115;-75
2022/12/08 10:03:12;;;;;;;25.75;9.68;;;;;;;2.02;100.00;100092.28;6146839;28;20028;-74
2022/12/08 10:06:30;;;;;;;33.05;10.32;;;;;;;2.04;100.00;100108.69;6147642;28;20081;-75
2022/12/08 10:09:40;;;;;;;20.27;8.57;;;;;;;1.89;100.00;100104.56;6145554;28;20035;-74
2022/12/08 10:12:50;;;;;;;21.08;8.60;;;;;;;1.95;100.00;100101.53;6146626;28;20035;-75
2022/12/08 10:16:00;;;;;;;22.38;10.38;;;;;;;1.93;100.00;100085.09;6147161;28;20415;-74
2022/12/08 10:19:00;;;;;;;22.05;8.60;;;;;;;1.95;100.00;100070.16;6146287;28;20035;-75
2022/12/08 10:21:56;;;;;;;22.05;8.93;;;;;;;1.98;100.00;100066.47;6128326;28;20339;-76
2022/12/08 10:24:59;;;;;;;21.90;7.95;;;;;;;2.15;100.00;100087.88;6147389;28;20028;-75
2022/12/08 10:27:55;;;;;;;21.80;9.15;;;;;;;2.22;100.00;100086.50;6146814;28;20044;-76
2022/12/08 10:30:50;;;;;;;19.75;9.18;;;;;;;2.18;100.00;100071.97;6128557;28;20145;-75
2022/12/08 10:33:47;;;;;;;22.48;8.05;;;;;;;2.32;100.00;100079.66;6146976;28;20165;-76
2022/12/08 10:36:51;;;;;;;21.15;9.07;;;;;;;2.42;100.00;100078.06;6128873;28;20036;-75
2022/12/08 10:39:46;;;;;;;19.73;8.57;;;;;;;2.42;100.00;100064.13;6139841;28;20035;-75
2022/12/08 10:42:46;;;;;;;23.97;8.57;;;;;;;2.42;100.00;100046.66;6127874;28;20059;-75
2022/12/08 10:45:42;;;;;;;22.67;8.32;;;;;;;2.50;100.00;100042.66;6147039;28;20110;-76
2022/12/08 10:48:46;;;;;;;16.40;7.93;;;;;;;2.54;100.00;100033.63;6129216;28;20036;-75
2022/12/08 10:51:42;;;;;;;18.73;7.38;;;;;;;2.74;100.00;100070.50;6147626;28;20393;-76
2022/12/08 10:54:41;;;;;;;13.15;6.05;;;;;;;2.68;100.00;100068.34;6146903;28;20036;-74
2022/12/08 10:57:37;;;;;;;13.15;5.55;;;;;;;2.62;100.00;100062.69;6147370;28;20063;-74
2022/12/08 11:00:37;;;;;;;11.32;4.82;;;;;;;2.58;100.00;100053.41;6146713;28;20137;-75
2022/12/08 11:03:35;;;;;;;12.88;5.20;;;;;;;2.78;100.00;100064.09;6127327;28;20040;-75
2022/12/08 11:06:33;;;;;;;9.50;4.80;;;;;;;2.71;100.00;100070.72;6128635;28;20403;-76
2022/12/08 11:09:32;;;;;;;12.23;4.72;;;;;;;2.55;100.00;100049.25;6128326;28;20062;-74
2022/12/08 11:12:28;;;;;;;10.80;4.50;;;;;;;2.61;100.00;100058.44;6132157;28;20032;-74
2022/12/08 11:15:24;;;;;;;13.75;5.50;;;;;;;2.72;100.00;100076.78;6128168;28;20058;-74
2022/12/08 11:18:23;;;;;;;17.67;6.82;;;;;;;2.64;100.00;100053.78;6146339;28;20484;-74
2022/12/08 11:21:18;;;;;;;12.30;4.60;;;;;;;2.67;100.00;100055.34;6146696;28;20027;-74
2022/12/08 11:24:21;;;;;;;9.67;4.00;;;;;;;2.73;100.00;100068.81;6145360;28;20030;-74
2022/12/08 11:27:16;;;;;;;9.88;4.60;;;;;;;2.69;100.00;100061.31;6146197;28;20031;-75
2022/12/08 11:30:23;;;;;;;10.87;4.53;;;;;;;2.81;100.00;100076.09;6146154;28;20031;-74
2022/12/08 11:33:26;;;;;;;9.95;3.80;;;;;;;2.75;100.00;100038.13;6127337;28;20070;-75
2022/12/08 11:36:25;;;;;;;7.28;3.85;;;;;;;2.87;100.00;100065.19;6128245;28;20066;-75
2022/12/08 11:39:20;;;;;;;8.27;4.13;;;;;;;2.68;100.00;100028.22;6127010;28;20036;-73
2022/12/08 11:42:19;;;;;;;8.10;3.88;;;;;;;2.91;100.00;100066.63;6126599;28;20039;-74
2022/12/08 11:45:19;;;;;;;7.70;3.92;;;;;;;2.91;100.00;100061.38;6145798;28;20036;-75
2022/12/08 11:48:24;;;;;;;8.68;4.60;;;;;;;2.87;100.00;100055.56;6127307;28;20379;-75
2022/12/08 11:51:39;;;;;;;7.65;4.10;;;;;;;2.93;100.00;100067.38;6127778;28;20036;-73
2022/12/08 11:54:44;;;;;;;9.63;4.55;;;;;;;2.89;100.00;100066.75;6126488;28;20079;-75
2022/12/08 11:57:39;;;;;;;11.52;3.97;;;;;;;2.92;100.00;100065.69;6126916;28;20047;-75
2022/12/08 12:00:34;;;;;;;9.27;4.67;;;;;;;2.92;100.00;100063.91;6146118;28;20020;-74
2022/12/08 12:03:36;;;;;;;12.37;4.50;;;;;;;2.90;100.00;100070.22;6145111;28;20092;-73
2022/12/08 12:06:50;;;;;;;12.10;5.22;;;;;;;2.95;100.00;100070.69;6145055;28;20428;-74
2022/12/08 12:10:08;;;;;;;10.32;4.82;;;;;;;2.88;100.00;100072.13;6145819;28;20036;-73
2022/12/08 12:13:12;;;;;;;12.75;5.25;;;;;;;2.90;100.00;100062.34;6144109;28;20059;-75
2022/12/08 12:16:36;;;;;;;11.48;4.72;;;;;;;2.84;100.00;100060.19;6127987;28;20036;-73
2022/12/08 12:19:35;;;;;;;9.27;4.20;;;;;;;2.84;100.00;100057.56;6145365;28;20028;-74
2022/12/08 12:22:34;;;;;;;10.40;4.93;;;;;;;2.89;100.00;100069.38;6126193;28;20093;-75
2022/12/08 12:25:31;;;;;;;13.90;5.32;;;;;;;2.86;100.00;100047.81;6140235;28;20503;-75
2022/12/08 12:28:33;;;;;;;9.35;3.92;;;;;;;2.91;100.00;100062.22;6145540;28;20445;-74
2022/12/08 12:31:30;;;;;;;11.27;4.57;;;;;;;2.90;100.00;100059.72;6145622;28;20111;-74
2022/12/08 12:34:28;;;;;;;12.07;4.68;;;;;;;2.87;100.00;100060.81;6145058;28;20031;-74
2022/12/08 12:37:34;;;;;;;11.23;4.28;;;;;;;2.75;100.00;100039.91;6144945;28;20047;-75
2022/12/08 12:40:37;;;;;;;9.93;3.97;;;;;;;2.68;100.00;100036.94;6127137;28;20097;-73
2022/12/08 12:43:34;;;;;;;11.32;5.22;;;;;;;2.78;100.00;100053.63;6126782;28;20085;-76
2022/12/08 12:46:37;;;;;;;15.02;6.50;;;;;;;2.78;100.00;100061.47;6143958;28;20028;-75
2022/12/08 12:49:42;;;;;;;11.68;4.55;;;;;;;2.75;100.00;100058.22;6145308;28;20043;-75
2022/12/08 12:52:38;;;;;;;7.90;3.92;;;;;;;2.57;100.00;100036.03;6147892;28;20046;-76
2022/12/08 12:55:59;;;;;;;13.25;3.90;;;;;;;2.71;100.00;100064.66;6149143;28;20036;-74
2022/12/08 12:58:54;;;;;;;10.68;4.35;;;;;;;2.48;100.00;100032.31;6139022;28;20408;-74
2022/12/08 13:01:54;;;;;;;9.20;3.80;;;;;;;2.59;100.00;100058.53;6149561;28;20036;-76
2022/12/08 13:05:18;;;;;;;10.18;4.38;;;;;;;2.62;100.00;100049.63;6149646;28;20036;-73
2022/12/08 13:08:24;;;;;;;8.88;3.95;;;;;;;2.61;100.00;100053.19;6149445;28;20089;-77
2022/12/08 13:11:20;;;;;;;8.65;3.78;;;;;;;2.59;100.00;100052.44;6133480;28;20029;-76
2022/12/08 13:14:33;;;;;;;9.55;3.97;;;;;;;2.49;100.00;100059.31;6145576;28;20067;-74
2022/12/08 13:17:31;;;;;;;10.88;4.80;;;;;;;2.61;100.00;100068.91;6131063;28;20067;-75
2022/12/08 13:20:27;;;;;;;11.18;4.20;;;;;;;2.39;100.00;100028.56;6149440;28;20089;-74
2022/12/08 13:23:36;;;;;;;10.25;4.10;;;;;;;2.53;100.00;100066.00;6148835;28;20032;-73
2022/12/08 13:26:32;;;;;;;10.68;4.93;;;;;;;2.42;100.00;100052.84;6149388;28;20469;-76
2022/12/08 13:29:28;;;;;;;7.35;3.53;;;;;;;2.48;100.00;100058.47;6149345;28;20111;-74
2022/12/08 13:32:53;;;;;;;8.40;3.78;;;;;;;2.51;100.00;100067.88;6148811;28;20046;-74
2022/12/08 13:36:09;;;;;;;8.80;4.40;;;;;;;2.40;100.00;100059.03;6131063;28;20039;-75
2022/12/08 13:39:05;;;;;;;7.45;3.60;;;;;;;2.38;100.00;100053.06;6125386;28;20039;-75
2022/12/08 13:42:03;;;;;;;11.80;5.13;;;;;;;2.44;100.00;100074.50;6148126;28;20081;-74
2022/12/08 13:45:10;;;;;;;12.02;5.20;;;;;;;2.44;100.00;100080.56;6131000;28;20392;-73